Time;durP1;ratioP1;P1;durP2;ratioP2;P2;SDS_P1;SDS_P2;PMS_P1;PMS_P2;Temp;Humidity;BMP_temperature;BMP_pressure;BME280_temperature;BME280_humidity;BME280_pressure;Samples;Min_cycle;Max_cycle;Signal;HPM_P1;HPM_P2
2023/02/25 00:00:24;;;;;;;0.28;0.28;;;2.80;99.90;;;;;;5018831;28;20037;-77
2023/02/25 00:02:51;;;;;;;0.28;0.28;;;2.70;99.90;;;;;;5019006;28;20018;-77
2023/02/25 00:05:17;;;;;;;0.20;0.20;;;2.70;99.90;;;;;;5018302;28;20030;-77
2023/02/25 00:07:44;;;;;;;0.20;0.20;;;2.60;99.90;;;;;;5018407;28;20026;-77
2023/02/25 00:10:11;;;;;;;0.20;0.20;;;2.60;99.90;;;;;;5016719;28;20034;-77
2023/02/25 00:12:38;;;;;;;0.10;0.10;;;2.50;99.90;;;;;;5000314;28;20033;-77
2023/02/25 00:15:05;;;;;;;0.22;0.22;;;2.50;99.90;;;;;;5017964;28;20045;-77
2023/02/25 00:17:31;;;;;;;0.20;0.20;;;2.40;99.90;;;;;;5018042;28;20201;-77
2023/02/25 00:19:56;;;;;;;0.10;0.10;;;2.30;99.90;;;;;;5017697;28;20054;-77
2023/02/25 00:22:23;;;;;;;0.30;0.30;;;2.30;99.90;;;;;;5018241;28;20049;-77
2023/02/25 00:24:53;;;;;;;0.17;0.17;;;2.20;99.90;;;;;;5017860;28;20443;-77
2023/02/25 00:27:19;;;;;;;0.20;0.20;;;2.10;99.90;;;;;;5016428;28;20033;-77
2023/02/25 00:29:44;;;;;;;0.20;0.20;;;2.10;99.90;;;;;;5017696;28;20386;-77
2023/02/25 00:32:10;;;;;;;0.20;0.20;;;2.10;99.90;;;;;;5017534;28;20521;-77
2023/02/25 00:34:36;;;;;;;0.20;0.20;;;2.00;99.90;;;;;;5017750;28;20030;-77
2023/02/25 00:37:02;;;;;;;0.30;0.30;;;2.00;99.90;;;;;;4991078;28;20129;-77
2023/02/25 00:39:40;;;;;;;0.20;0.20;;;1.90;99.90;;;;;;4981023;28;20026;-77
2023/02/25 00:42:11;;;;;;;0.15;0.15;;;1.90;99.90;;;;;;4998553;28;20034;-77
2023/02/25 00:44:37;;;;;;;0.20;0.20;;;2.00;99.90;;;;;;5014098;28;20038;-77
2023/02/25 00:47:03;;;;;;;0.17;0.17;;;2.00;99.90;;;;;;5017619;28;20100;-77
2023/02/25 00:49:29;;;;;;;0.15;0.15;;;2.00;99.90;;;;;;5017646;28;20033;-77
2023/02/25 00:51:55;;;;;;;0.10;0.10;;;2.00;99.90;;;;;;5017858;28;20402;-77
2023/02/25 00:54:21;;;;;;;0.20;0.20;;;1.90;99.90;;;;;;5018610;28;20076;-77
2023/02/25 00:56:46;;;;;;;0.20;0.20;;;1.90;99.90;;;;;;5018285;28;20026;-77
2023/02/25 00:59:12;;;;;;;0.20;0.20;;;1.90;99.90;;;;;;5000803;28;20032;-77
2023/02/25 01:01:39;;;;;;;0.30;0.30;;;1.90;99.90;;;;;;5018445;28;20018;-77
2023/02/25 01:04:06;;;;;;;0.20;0.20;;;1.90;99.90;;;;;;5000931;28;20030;-77
2023/02/25 01:06:41;;;;;;;0.10;0.10;;;1.90;99.90;;;;;;5017304;28;20061;-77
2023/02/25 01:09:12;;;;;;;0.22;0.22;;;1.90;99.90;;;;;;5016477;28;20064;-77
2023/02/25 01:11:40;;;;;;;0.15;0.15;;;1.90;99.90;;;;;;5017255;28;20029;-77
2023/02/25 01:14:10;;;;;;;0.20;0.20;;;1.90;99.90;;;;;;5016694;28;20103;-77
2023/02/25 01:16:36;;;;;;;0.20;0.20;;;2.00;99.90;;;;;;5015709;28;20080;-77
2023/02/25 01:19:05;;;;;;;0.20;0.20;;;2.00;99.90;;;;;;5016743;28;20069;-77
2023/02/25 01:21:34;;;;;;;0.30;0.30;;;2.00;99.90;;;;;;5015971;28;20044;-77
2023/02/25 01:24:05;;;;;;;0.28;0.28;;;2.00;99.90;;;;;;5017235;28;20026;-77
2023/02/25 01:26:35;;;;;;;0.20;0.20;;;2.10;99.90;;;;;;4998950;28;20371;-77
2023/02/25 01:29:06;;;;;;;0.20;0.20;;;1.90;99.90;;;;;;5017223;28;20037;-77
2023/02/25 01:31:31;;;;;;;0.20;0.20;;;2.00;99.90;;;;;;5017291;28;20029;-77
2023/02/25 01:33:58;;;;;;;0.20;0.20;;;2.10;99.90;;;;;;5016554;28;20030;-77
2023/02/25 01:36:25;;;;;;;0.20;0.20;;;2.10;99.90;;;;;;5016768;28;20388;-77
2023/02/25 01:38:50;;;;;;;0.20;0.20;;;2.20;99.90;;;;;;5016757;28;20034;-77
2023/02/25 01:41:16;;;;;;;0.13;0.13;;;2.20;99.90;;;;;;5016683;28;20391;-77
2023/02/25 01:43:42;;;;;;;0.20;0.20;;;2.20;99.90;;;;;;5016434;28;20030;-77
2023/02/25 01:46:07;;;;;;;0.20;0.20;;;2.30;99.90;;;;;;5016302;28;20490;-77
2023/02/25 01:48:39;;;;;;;0.20;0.20;;;2.30;99.90;;;;;;5017562;28;20061;-77
2023/02/25 01:51:11;;;;;;;0.20;0.20;;;2.20;99.90;;;;;;5015532;28;20495;-77
2023/02/25 01:53:44;;;;;;;0.20;0.20;;;2.20;99.90;;;;;;5017397;28;20053;-77
2023/02/25 01:56:13;;;;;;;0.20;0.20;;;2.20;99.90;;;;;;5017432;28;20442;-77
2023/02/25 01:58:39;;;;;;;0.20;0.20;;;2.20;99.90;;;;;;5016207;28;20442;-77
2023/02/25 02:01:13;;;;;;;0.20;0.20;;;2.20;99.90;;;;;;5016096;28;20022;-77
2023/02/25 02:03:40;;;;;;;0.20;0.20;;;2.10;99.90;;;;;;5016802;28;20033;-77
2023/02/25 02:06:14;;;;;;;0.20;0.20;;;2.10;99.90;;;;;;5016093;28;20026;-77
2023/02/25 02:08:42;;;;;;;0.20;0.20;;;2.10;99.90;;;;;;5015562;28;20483;-77
2023/02/25 02:11:07;;;;;;;0.20;0.20;;;2.10;99.90;;;;;;5014502;28;20101;-77
2023/02/25 02:13:37;;;;;;;0.20;0.20;;;2.10;99.90;;;;;;5016363;28;20064;-77
2023/02/25 02:16:17;;;;;;;0.20;0.20;;;2.20;99.90;;;;;;4998770;28;20022;-77
2023/02/25 02:18:51;;;;;;;0.20;0.20;;;2.10;99.90;;;;;;5015528;28;20030;-77
2023/02/25 02:21:54;;;;;;;0.20;0.20;;;2.10;99.90;;;;;;5015379;28;20067;-77
2023/02/25 02:24:47;;;;;;;0.30;0.30;;;2.10;99.90;;;;;;5016261;28;20020;-77
2023/02/25 02:27:43;;;;;;;0.20;0.20;;;2.10;99.90;;;;;;5015927;28;20431;-77
2023/02/25 02:30:08;;;;;;;0.13;0.13;;;2.10;99.90;;;;;;5013631;28;20026;-77
2023/02/25 02:32:55;;;;;;;0.25;0.25;;;2.20;99.90;;;;;;5015732;28;20049;-77
2023/02/25 02:35:35;;;;;;;0.10;0.10;;;2.20;99.90;;;;;;5015914;28;20475;-77
2023/02/25 02:38:13;;;;;;;0.20;0.20;;;2.20;99.90;;;;;;5016058;28;20052;-77
2023/02/25 02:40:49;;;;;;;0.20;0.20;;;2.10;99.90;;;;;;5015894;28;20022;-77
2023/02/25 02:43:17;;;;;;;0.20;0.20;;;2.20;99.90;;;;;;5013515;28;20026;-77
2023/02/25 02:45:48;;;;;;;0.10;0.10;;;2.20;99.90;;;;;;5015674;28;20428;-77
2023/02/25 02:48:23;;;;;;;0.20;0.20;;;2.20;99.90;;;;;;5015525;28;20033;-77
2023/02/25 02:51:03;;;;;;;0.20;0.20;;;2.20;99.90;;;;;;5016356;28;20033;-77
2023/02/25 02:53:38;;;;;;;0.20;0.20;;;2.20;99.90;;;;;;5016304;28;20081;-77
2023/02/25 02:56:07;;;;;;;0.20;0.20;;;2.20;99.90;;;;;;5015475;28;20022;-77
2023/02/25 02:58:54;;;;;;;0.13;0.13;;;2.20;99.90;;;;;;5015222;28;20141;-77
2023/02/25 03:01:29;;;;;;;0.20;0.20;;;2.10;99.90;;;;;;5015792;28;20018;-77
2023/02/25 03:03:59;;;;;;;0.20;0.20;;;2.20;99.90;;;;;;5015892;28;20030;-77
2023/02/25 03:06:31;;;;;;;0.20;0.20;;;2.20;99.90;;;;;;5015539;28;20049;-77
2023/02/25 03:09:19;;;;;;;0.20;0.20;;;2.30;99.90;;;;;;5014770;28;20442;-77
2023/02/25 03:11:45;;;;;;;0.30;0.30;;;2.20;99.90;;;;;;5016761;28;20025;-77
2023/02/25 03:14:12;;;;;;;0.20;0.20;;;2.30;99.90;;;;;;5019641;28;20053;-77
2023/02/25 03:16:55;;;;;;;0.30;0.30;;;2.30;99.90;;;;;;5020072;28;20025;-77
2023/02/25 03:19:31;;;;;;;0.27;0.27;;;2.20;99.90;;;;;;5019068;28;20414;-77
2023/02/25 03:22:09;;;;;;;0.30;0.30;;;2.30;99.90;;;;;;5018992;28;20273;-77
2023/02/25 03:24:44;;;;;;;0.20;0.20;;;2.30;99.90;;;;;;5019053;28;20096;-77
2023/02/25 03:27:23;;;;;;;0.20;0.20;;;2.40;99.90;;;;;;5019690;28;20022;-77
2023/02/25 03:29:49;;;;;;;0.20;0.20;;;2.40;99.90;;;;;;5001209;28;20080;-77
2023/02/25 03:32:19;;;;;;;0.20;0.20;;;2.40;99.90;;;;;;5019169;28;20026;-77
2023/02/25 03:34:48;;;;;;;0.13;0.13;;;2.30;99.90;;;;;;5019671;28;20387;-77
2023/02/25 03:37:19;;;;;;;0.30;0.30;;;2.30;99.90;;;;;;5019391;28;20113;-77
2023/02/25 03:39:51;;;;;;;0.20;0.20;;;2.30;99.90;;;;;;5018793;28;20022;-77
2023/02/25 03:42:25;;;;;;;0.20;0.20;;;2.30;99.90;;;;;;5019344;28;20033;-77
2023/02/25 03:44:53;;;;;;;0.20;0.20;;;2.30;99.90;;;;;;5019858;28;20030;-77
2023/02/25 03:47:21;;;;;;;0.10;0.10;;;2.20;99.90;;;;;;5018960;28;20388;-77
2023/02/25 03:49:57;;;;;;;0.20;0.20;;;2.10;99.90;;;;;;5018795;28;20407;-77
2023/02/25 03:52:25;;;;;;;0.20;0.20;;;2.00;99.90;;;;;;5019618;28;20029;-77
2023/02/25 03:54:54;;;;;;;0.10;0.10;;;2.00;99.90;;;;;;5017872;28;20029;-77
2023/02/25 03:57:24;;;;;;;0.30;0.30;;;1.90;99.90;;;;;;5018773;28;20080;-77
2023/02/25 03:59:56;;;;;;;0.20;0.20;;;1.80;99.90;;;;;;5017428;28;20479;-77
2023/02/25 04:02:32;;;;;;;0.20;0.20;;;1.80;99.90;;;;;;5017951;28;20121;-77
2023/02/25 04:04:57;;;;;;;0.20;0.20;;;1.80;99.90;;;;;;5018003;28;20018;-77
2023/02/25 04:07:23;;;;;;;0.20;0.20;;;1.80;99.90;;;;;;5018054;28;20033;-77
2023/02/25 04:09:49;;;;;;;0.20;0.20;;;1.80;99.90;;;;;;5017286;28;20033;-77
2023/02/25 04:12:17;;;;;;;0.20;0.20;;;1.90;99.90;;;;;;5018566;28;20017;-77
2023/02/25 04:14:43;;;;;;;0.10;0.10;;;1.90;99.90;;;;;;5018425;28;20034;-77
2023/02/25 04:17:10;;;;;;;0.20;0.20;;;2.00;99.90;;;;;;5016815;28;20053;-77
2023/02/25 04:19:35;;;;;;;0.15;0.15;;;2.00;99.90;;;;;;5018140;28;20109;-77
2023/02/25 04:22:01;;;;;;;0.20;0.20;;;2.00;99.90;;;;;;5000980;28;20427;-77
2023/02/25 04:24:26;;;;;;;0.20;0.20;;;2.10;99.90;;;;;;5000381;28;20104;-77
2023/02/25 04:26:57;;;;;;;0.20;0.20;;;2.10;99.90;;;;;;5019095;28;20022;-77
2023/02/25 04:29:24;;;;;;;0.22;0.22;;;2.10;99.90;;;;;;5000756;28;20113;-77
2023/02/25 04:31:50;;;;;;;0.20;0.20;;;2.10;99.90;;;;;;5001015;28;20021;-77
2023/02/25 04:34:15;;;;;;;0.20;0.20;;;2.10;99.90;;;;;;5018944;28;20364;-77
2023/02/25 04:36:43;;;;;;;0.20;0.20;;;2.10;99.90;;;;;;5020121;28;20084;-77
2023/02/25 04:39:10;;;;;;;0.20;0.20;;;2.10;99.90;;;;;;5018395;28;20029;-77
2023/02/25 04:41:36;;;;;;;0.20;0.20;;;2.10;99.90;;;;;;4999314;28;20027;-77
2023/02/25 04:44:03;;;;;;;0.20;0.20;;;2.20;99.90;;;;;;4982267;28;20062;-77
2023/02/25 04:46:29;;;;;;;0.20;0.20;;;2.20;99.90;;;;;;5009165;28;20037;-77
2023/02/25 04:48:54;;;;;;;0.20;0.20;;;2.10;99.90;;;;;;5000824;28;20030;-77
2023/02/25 04:51:20;;;;;;;0.20;0.20;;;2.20;99.90;;;;;;5017603;28;20032;-77
2023/02/25 04:53:46;;;;;;;0.20;0.20;;;2.10;99.90;;;;;;5000884;28;20026;-77
2023/02/25 04:56:14;;;;;;;0.20;0.20;;;2.10;99.90;;;;;;5018503;28;20436;-77
2023/02/25 04:58:40;;;;;;;0.20;0.20;;;2.10;99.90;;;;;;5018233;28;20026;-77
2023/02/25 05:01:07;;;;;;;0.20;0.20;;;2.10;99.90;;;;;;5019896;28;20065;-77
2023/02/25 05:03:33;;;;;;;0.20;0.20;;;2.10;99.90;;;;;;5002228;28;20056;-77
2023/02/25 05:06:00;;;;;;;0.22;0.22;;;2.00;99.90;;;;;;5002149;28;20025;-77
2023/02/25 05:08:25;;;;;;;0.20;0.20;;;2.00;99.90;;;;;;5020306;28;20388;-77
2023/02/25 05:10:51;;;;;;;0.22;0.22;;;2.00;99.90;;;;;;5019718;28;20022;-77
2023/02/25 05:13:17;;;;;;;0.20;0.20;;;2.00;99.90;;;;;;5018928;28;20037;-77
2023/02/25 05:15:43;;;;;;;0.20;0.20;;;2.00;99.90;;;;;;5019099;28;20527;-77
2023/02/25 05:18:09;;;;;;;0.20;0.20;;;2.00;99.90;;;;;;5018627;28;20030;-77
2023/02/25 05:20:40;;;;;;;0.20;0.20;;;2.00;99.90;;;;;;5000813;28;20041;-77
2023/02/25 05:23:05;;;;;;;0.20;0.20;;;1.90;99.90;;;;;;5019260;28;20105;-77
2023/02/25 05:25:32;;;;;;;0.20;0.20;;;1.80;99.90;;;;;;5017523;28;20061;-77
2023/02/25 05:27:58;;;;;;;0.20;0.20;;;1.80;99.90;;;;;;5018651;28;20022;-77
2023/02/25 05:30:24;;;;;;;0.30;0.30;;;1.70;99.90;;;;;;5000512;28;20080;-77
2023/02/25 05:32:49;;;;;;;0.20;0.20;;;1.70;99.90;;;;;;5018803;28;20052;-77
2023/02/25 05:35:15;;;;;;;0.30;0.30;;;1.60;99.90;;;;;;4999280;28;20022;-77
2023/02/25 05:37:40;;;;;;;0.22;0.22;;;1.50;99.90;;;;;;5017391;28;20094;-77
2023/02/25 05:40:08;;;;;;;0.20;0.20;;;1.50;99.90;;;;;;5016963;28;20022;-77
2023/02/25 05:42:34;;;;;;;0.20;0.20;;;1.50;99.90;;;;;;5000603;28;20033;-77
2023/02/25 05:45:02;;;;;;;0.20;0.20;;;1.40;99.90;;;;;;5016935;28;20029;-77
2023/02/25 05:47:27;;;;;;;0.20;0.20;;;1.30;99.90;;;;;;4998722;28;20080;-77
2023/02/25 05:49:53;;;;;;;0.22;0.22;;;1.20;99.90;;;;;;4998725;28;20029;-77
2023/02/25 05:52:18;;;;;;;0.20;0.20;;;1.20;99.90;;;;;;5016435;28;20475;-77
2023/02/25 05:54:44;;;;;;;0.15;0.15;;;1.10;99.90;;;;;;4998978;28;20026;-77
2023/02/25 05:57:09;;;;;;;0.20;0.20;;;1.00;99.90;;;;;;5016260;28;20078;-77
2023/02/25 05:59:35;;;;;;;0.20;0.20;;;0.90;99.90;;;;;;5016816;28;20041;-77
2023/02/25 06:02:01;;;;;;;0.30;0.30;;;0.90;99.90;;;;;;5012884;28;20032;-77
2023/02/25 06:04:27;;;;;;;0.25;0.25;;;0.80;99.90;;;;;;5016331;28;20018;-77
2023/02/25 06:06:52;;;;;;;0.20;0.20;;;0.70;99.90;;;;;;5016252;28;20025;-77
2023/02/25 06:09:19;;;;;;;0.30;0.30;;;0.70;99.90;;;;;;5016051;28;20100;-77
2023/02/25 06:11:46;;;;;;;0.20;0.20;;;0.70;99.90;;;;;;5016196;28;20072;-77
2023/02/25 06:14:12;;;;;;;0.20;0.20;;;0.60;99.90;;;;;;5016478;28;20018;-77
2023/02/25 06:16:41;;;;;;;0.20;0.20;;;0.60;99.90;;;;;;4998194;28;20030;-77
2023/02/25 06:19:09;;;;;;;0.13;0.13;;;0.60;99.90;;;;;;5015769;28;20439;-77
2023/02/25 06:21:35;;;;;;;0.30;0.30;;;0.50;99.90;;;;;;5015116;28;20022;-77
2023/02/25 06:24:02;;;;;;;0.20;0.20;;;0.60;99.90;;;;;;5016582;28;20133;-77
2023/02/25 06:26:28;;;;;;;0.20;0.20;;;0.60;99.90;;;;;;5016938;28;20026;-77
2023/02/25 06:28:53;;;;;;;0.20;0.20;;;0.50;99.90;;;;;;5015152;28;20084;-77
2023/02/25 06:31:21;;;;;;;0.10;0.10;;;0.50;99.90;;;;;;5015826;28;20038;-77
2023/02/25 06:33:49;;;;;;;0.20;0.20;;;0.50;99.90;;;;;;5016172;28;20042;-77
2023/02/25 06:36:16;;;;;;;0.25;0.25;;;0.50;99.90;;;;;;5016532;28;20017;-77
2023/02/25 06:38:42;;;;;;;0.20;0.20;;;0.50;99.90;;;;;;5016510;28;20032;-77
2023/02/25 06:41:15;;;;;;;0.20;0.20;;;0.40;99.90;;;;;;4998775;28;20022;-77
2023/02/25 06:43:42;;;;;;;0.20;0.20;;;0.40;99.90;;;;;;5016866;28;20056;-77
2023/02/25 06:46:10;;;;;;;0.20;0.20;;;0.40;99.90;;;;;;5016527;28;20512;-77
2023/02/25 06:48:35;;;;;;;0.30;0.30;;;0.40;99.90;;;;;;5019865;28;20034;-77
2023/02/25 06:51:01;;;;;;;0.20;0.20;;;0.40;99.90;;;;;;5020562;28;20084;-77
2023/02/25 06:53:28;;;;;;;0.20;0.20;;;0.40;99.90;;;;;;5002854;28;20032;-77
2023/02/25 06:55:54;;;;;;;0.20;0.20;;;0.40;99.90;;;;;;5020777;28;20038;-77
2023/02/25 06:58:19;;;;;;;0.30;0.30;;;0.40;99.90;;;;;;5020949;28;20096;-77
2023/02/25 07:00:45;;;;;;;0.30;0.30;;;0.40;99.90;;;;;;5020918;28;20471;-77
2023/02/25 07:03:11;;;;;;;0.20;0.20;;;0.40;99.90;;;;;;5021155;28;20037;-77
2023/02/25 07:05:37;;;;;;;0.20;0.20;;;0.40;99.90;;;;;;5003805;28;20030;-77
2023/02/25 07:08:03;;;;;;;0.22;0.22;;;0.40;99.90;;;;;;5003757;28;20077;-77
2023/02/25 07:10:28;;;;;;;0.30;0.30;;;0.40;99.90;;;;;;5003459;28;20479;-77
2023/02/25 07:12:54;;;;;;;0.22;0.22;;;0.40;99.90;;;;;;5019955;28;20029;-77
2023/02/25 07:15:20;;;;;;;0.20;0.20;;;0.60;99.90;;;;;;5020611;28;20086;-77
2023/02/25 07:17:46;;;;;;;0.20;0.20;;;0.60;99.90;;;;;;5020509;28;20040;-77
2023/02/25 07:20:12;;;;;;;0.30;0.30;;;0.60;99.90;;;;;;5020191;28;20026;-77
2023/02/25 07:22:40;;;;;;;0.20;0.20;;;0.70;99.90;;;;;;5002967;28;20018;-77
2023/02/25 07:25:07;;;;;;;0.30;0.30;;;0.60;99.90;;;;;;5020257;28;20101;-77
2023/02/25 07:27:32;;;;;;;0.28;0.28;;;0.50;99.90;;;;;;5020676;28;20018;-77
2023/02/25 07:30:00;;;;;;;0.22;0.22;;;0.50;99.90;;;;;;5020346;28;20037;-77
2023/02/25 07:32:25;;;;;;;0.30;0.30;;;0.50;99.90;;;;;;5020437;28;20022;-77
2023/02/25 07:34:51;;;;;;;0.30;0.30;;;0.40;99.90;;;;;;5002600;28;20505;-77
2023/02/25 07:37:17;;;;;;;0.22;0.22;;;0.30;99.90;;;;;;5019228;28;20582;-76
2023/02/25 07:39:45;;;;;;;0.30;0.30;;;0.40;99.90;;;;;;5019261;28;20033;-77
2023/02/25 07:42:10;;;;;;;0.20;0.20;;;0.50;99.90;;;;;;5022409;28;20033;-77
2023/02/25 07:44:36;;;;;;;0.20;0.20;;;0.60;99.90;;;;;;5021433;28;20021;-77
2023/02/25 07:47:01;;;;;;;0.20;0.20;;;0.70;99.90;;;;;;5019962;28;20021;-77
2023/02/25 07:49:27;;;;;;;0.20;0.20;;;0.80;99.90;;;;;;5018321;28;20033;-77
2023/02/25 07:51:52;;;;;;;0.30;0.30;;;0.90;99.90;;;;;;5019345;28;20026;-77
2023/02/25 07:54:20;;;;;;;0.20;0.20;;;1.00;99.90;;;;;;5020853;28;20364;-78
2023/02/25 07:56:45;;;;;;;0.30;0.30;;;1.10;99.90;;;;;;5003933;28;20033;-78
2023/02/25 07:59:11;;;;;;;0.20;0.20;;;1.10;99.90;;;;;;5021757;28;20113;-78
2023/02/25 08:01:38;;;;;;;0.20;0.20;;;1.20;99.90;;;;;;5022397;28;20029;-78
2023/02/25 08:04:05;;;;;;;0.20;0.20;;;1.30;99.90;;;;;;4999227;28;20022;-78
2023/02/25 08:06:37;;;;;;;0.20;0.20;;;1.30;99.90;;;;;;5017499;28;20022;-77
2023/02/25 08:09:04;;;;;;;0.20;0.20;;;1.30;99.90;;;;;;5021262;28;20032;-78
2023/02/25 08:11:30;;;;;;;0.20;0.20;;;1.40;99.90;;;;;;5021370;28;20113;-77
2023/02/25 08:13:57;;;;;;;0.20;0.20;;;1.40;99.90;;;;;;5020796;28;20030;-78
2023/02/25 08:16:23;;;;;;;0.10;0.10;;;1.40;99.90;;;;;;5021142;28;20046;-78
2023/02/25 08:18:48;;;;;;;0.20;0.20;;;1.50;99.90;;;;;;5044039;22;20052;-78
2023/02/25 08:21:20;;;;;;;0.20;0.20;;;1.60;99.90;;;;;;5060633;28;20113;-78
2023/02/25 08:23:47;;;;;;;0.28;0.28;;;1.60;99.90;;;;;;5060468;28;20505;-77
2023/02/25 08:26:16;;;;;;;0.20;0.20;;;1.60;99.90;;;;;;5059586;28;20029;-78
2023/02/25 08:28:42;;;;;;;0.20;0.20;;;1.70;99.90;;;;;;5042854;28;20024;-77
2023/02/25 08:31:10;;;;;;;0.20;0.20;;;1.80;99.90;;;;;;5059505;28;20032;-78
2023/02/25 08:33:38;;;;;;;0.20;0.20;;;1.80;99.90;;;;;;5058229;28;20024;-77
2023/02/25 08:36:12;;;;;;;0.20;0.20;;;1.90;99.90;;;;;;5056417;28;20029;-77
2023/02/25 08:38:38;;;;;;;0.30;0.30;;;2.10;99.90;;;;;;5056976;28;20099;-77
2023/02/25 08:41:05;;;;;;;0.25;0.25;;;2.10;99.90;;;;;;5057885;28;20021;-77
2023/02/25 08:43:31;;;;;;;0.20;0.20;;;2.00;99.90;;;;;;5056564;28;20057;-77
2023/02/25 08:45:57;;;;;;;0.20;0.20;;;2.10;99.90;;;;;;5056196;28;20071;-77
2023/02/25 08:48:23;;;;;;;0.20;0.20;;;2.00;99.90;;;;;;5056335;28;20105;-77
2023/02/25 08:50:48;;;;;;;0.30;0.30;;;2.00;99.90;;;;;;5039040;28;20048;-76
2023/02/25 08:53:14;;;;;;;0.30;0.30;;;2.00;99.90;;;;;;5056803;28;20470;-76
2023/02/25 08:55:39;;;;;;;0.30;0.30;;;2.10;99.90;;;;;;5057637;28;20021;-77
2023/02/25 08:58:06;;;;;;;0.20;0.20;;;2.20;99.90;;;;;;5059146;28;20055;-78
2023/02/25 09:00:32;;;;;;;0.20;0.20;;;2.30;99.90;;;;;;5059892;28;20051;-78
2023/02/25 09:02:57;;;;;;;0.20;0.20;;;2.20;99.90;;;;;;5058830;28;20021;-78
2023/02/25 09:05:23;;;;;;;0.30;0.30;;;2.30;99.90;;;;;;5057253;28;20028;-77
2023/02/25 09:07:50;;;;;;;0.25;0.25;;;2.40;99.90;;;;;;5055700;28;20425;-77
2023/02/25 09:10:16;;;;;;;0.30;0.30;;;2.50;99.90;;;;;;5037534;28;20078;-77
2023/02/25 09:12:43;;;;;;;0.30;0.30;;;2.50;99.90;;;;;;5055376;28;20024;-77
2023/02/25 09:15:10;;;;;;;0.20;0.20;;;2.50;99.90;;;;;;5050884;28;20232;-76
2023/02/25 09:17:36;;;;;;;0.30;0.30;;;2.50;99.90;;;;;;5055465;28;20394;-77
2023/02/25 09:20:05;;;;;;;0.20;0.20;;;2.50;99.90;;;;;;5103613;22;20042;-74
2023/02/25 09:22:34;;;;;;;0.20;0.20;;;2.50;99.90;;;;;;5018323;28;20112;-74
2023/02/25 09:24:59;;;;;;;0.20;0.20;;;2.50;99.90;;;;;;5035574;28;20053;-74
2023/02/25 09:27:25;;;;;;;0.30;0.30;;;2.60;99.90;;;;;;5034188;28;20021;-74
2023/02/25 09:29:51;;;;;;;0.30;0.30;;;2.70;99.90;;;;;;5033547;28;20029;-74
2023/02/25 09:32:19;;;;;;;0.20;0.20;;;2.70;99.90;;;;;;5034307;28;20471;-74
2023/02/25 09:34:45;;;;;;;0.20;0.20;;;2.70;99.90;;;;;;5035194;28;20034;-74
2023/02/25 09:37:12;;;;;;;0.30;0.30;;;2.80;99.90;;;;;;5035711;28;20028;-74
2023/02/25 09:39:38;;;;;;;0.20;0.20;;;2.90;99.90;;;;;;5035909;28;20022;-74
2023/02/25 09:42:11;;;;;;;0.20;0.20;;;3.00;99.90;;;;;;5035490;28;20100;-74
2023/02/25 09:44:43;;;;;;;0.20;0.20;;;3.10;99.90;;;;;;5017531;28;20446;-75
2023/02/25 09:47:25;;;;;;;0.20;0.20;;;3.10;99.90;;;;;;5036551;28;20080;-76
2023/02/25 09:50:07;;;;;;;0.30;0.30;;;3.00;99.90;;;;;;5036021;28;20076;-76
2023/02/25 09:52:38;;;;;;;0.30;0.30;;;3.10;99.90;;;;;;5035659;28;20041;-76
2023/02/25 09:55:18;;;;;;;0.25;0.25;;;3.20;99.90;;;;;;5035820;28;20395;-77
2023/02/25 09:57:54;;;;;;;0.20;0.20;;;3.20;99.90;;;;;;5035801;28;20091;-76
2023/02/25 10:00:20;;;;;;;0.20;0.20;;;3.20;99.90;;;;;;5017563;28;20025;-76
2023/02/25 10:02:52;;;;;;;0.30;0.30;;;3.30;99.90;;;;;;5035731;28;20026;-74
2023/02/25 10:05:38;;;;;;;0.20;0.20;;;3.40;99.90;;;;;;5035460;28;20029;-73
2023/02/25 10:08:46;;;;;;;0.30;0.30;;;3.50;99.90;;;;;;5017334;28;20026;-75
2023/02/25 10:11:33;;;;;;;0.20;0.20;;;3.50;99.90;;;;;;4955340;29;20054;-74
2023/02/25 10:14:21;;;;;;;0.20;0.20;;;3.70;99.90;;;;;;4954918;29;20118;-72
2023/02/25 10:17:11;;;;;;;0.20;0.20;;;3.60;99.90;;;;;;5018904;28;20056;-74
2023/02/25 10:20:17;;;;;;;0.20;0.20;;;3.70;99.90;;;;;;5043494;22;20068;-73
2023/02/25 10:23:36;;;;;;;0.10;0.10;;;3.80;99.90;;;;;;5054268;28;20024;-74
2023/02/25 10:26:28;;;;;;;0.28;0.28;;;3.90;99.90;;;;;;4976591;28;20496;-74
2023/02/25 10:29:01;;;;;;;0.20;0.20;;;4.10;99.90;;;;;;5052956;28;20041;-74
2023/02/25 10:31:28;;;;;;;0.30;0.30;;;4.20;99.90;;;;;;5054240;28;20058;-74
2023/02/25 10:33:56;;;;;;;0.20;0.20;;;3.90;99.90;;;;;;5054777;28;20064;-74
2023/02/25 10:36:34;;;;;;;0.20;0.20;;;3.90;99.90;;;;;;5053739;28;20490;-74
2023/02/25 10:39:00;;;;;;;0.20;0.20;;;3.90;99.90;;;;;;5054561;28;20085;-74
2023/02/25 10:41:26;;;;;;;0.30;0.30;;;4.00;99.90;;;;;;5062110;22;20045;-74
2023/02/25 10:43:53;;;;;;;0.20;0.20;;;4.00;99.90;;;;;;5054267;28;20526;-74
2023/02/25 10:46:32;;;;;;;0.20;0.20;;;4.10;99.90;;;;;;5050302;28;20036;-74
2023/02/25 10:49:00;;;;;;;0.30;0.30;;;4.30;99.90;;;;;;5043089;28;20033;-74
2023/02/25 10:51:28;;;;;;;0.20;0.20;;;4.30;99.90;;;;;;5033290;28;20025;-74
2023/02/25 10:53:56;;;;;;;0.30;0.30;;;4.30;99.90;;;;;;5034215;28;20025;-74
2023/02/25 10:56:25;;;;;;;0.20;0.20;;;4.20;99.90;;;;;;5034257;28;20025;-73
2023/02/25 10:59:06;;;;;;;0.20;0.20;;;4.20;99.90;;;;;;5033827;28;20120;-74
2023/02/25 11:01:38;;;;;;;0.20;0.20;;;4.40;99.90;;;;;;5034227;28;20393;-73
2023/02/25 11:04:10;;;;;;;0.10;0.10;;;4.50;99.90;;;;;;5034341;28;20021;-74
2023/02/25 11:06:39;;;;;;;0.20;0.20;;;4.50;99.90;;;;;;5033993;28;20021;-73
2023/02/25 11:09:25;;;;;;;0.25;0.25;;;4.50;99.90;;;;;;5033255;28;20026;-74
2023/02/25 11:11:58;;;;;;;0.10;0.10;;;4.50;99.90;;;;;;5034799;28;20025;-74
2023/02/25 11:14:32;;;;;;;0.20;0.20;;;4.60;99.90;;;;;;5034368;28;20495;-74
2023/02/25 11:17:19;;;;;;;0.20;0.20;;;4.80;99.90;;;;;;5034181;28;20091;-74
2023/02/25 11:19:57;;;;;;;0.20;0.20;;;5.00;99.90;;;;;;5034061;28;20027;-74
2023/02/25 11:22:30;;;;;;;0.20;0.20;;;5.10;99.90;;;;;;5034458;28;20470;-74
2023/02/25 11:24:59;;;;;;;0.30;0.30;;;4.90;99.90;;;;;;5034281;28;20036;-74
2023/02/25 11:27:37;;;;;;;0.22;0.22;;;4.70;99.90;;;;;;5034428;28;20033;-74
2023/02/25 11:30:18;;;;;;;0.30;0.30;;;4.70;99.90;;;;;;5032840;28;20121;-74
2023/02/25 11:32:47;;;;;;;0.30;0.30;;;4.80;99.90;;;;;;5039921;28;20021;-74
2023/02/25 11:35:27;;;;;;;0.22;0.22;;;5.00;99.90;;;;;;5057231;28;20049;-74
2023/02/25 11:37:54;;;;;;;0.20;0.20;;;5.00;99.90;;;;;;5038469;28;20028;-74
2023/02/25 11:40:31;;;;;;;0.20;0.20;;;5.10;99.90;;;;;;5057685;28;20025;-74
2023/02/25 11:43:05;;;;;;;0.20;0.20;;;5.30;99.90;;;;;;5058271;28;20074;-74
2023/02/25 11:45:38;;;;;;;0.13;0.13;;;5.40;99.90;;;;;;5056918;28;20017;-74
2023/02/25 11:48:15;;;;;;;0.20;0.20;;;5.50;99.90;;;;;;5040227;28;20601;-74
2023/02/25 11:51:03;;;;;;;0.30;0.30;;;5.60;99.90;;;;;;5037713;28;20060;-74
2023/02/25 11:53:59;;;;;;;0.28;0.28;;;5.50;99.90;;;;;;5036983;28;20025;-74
2023/02/25 11:56:26;;;;;;;0.20;0.20;;;5.60;99.90;;;;;;5037829;28;20030;-74
2023/02/25 11:59:17;;;;;;;0.30;0.30;;;5.80;99.90;;;;;;5044474;28;20545;-74
2023/02/25 12:02:10;;;;;;;0.20;0.20;;;5.70;99.90;;;;;;5018932;28;20540;-74
2023/02/25 12:05:13;;;;;;;0.22;0.22;;;5.60;99.90;;;;;;5038719;28;20087;-74
2023/02/25 12:08:02;;;;;;;0.20;0.20;;;5.40;99.90;;;;;;5055983;28;20461;-74
2023/02/25 12:10:47;;;;;;;0.20;0.20;;;5.40;99.90;;;;;;5053172;28;20013;-74
2023/02/25 12:13:27;;;;;;;0.30;0.30;;;5.70;99.90;;;;;;5054929;28;20036;-74
2023/02/25 12:15:55;;;;;;;0.20;0.20;;;5.90;99.90;;;;;;5036937;28;20024;-74
2023/02/25 12:18:43;;;;;;;0.20;0.20;;;6.00;99.90;;;;;;5056000;28;20097;-73
2023/02/25 12:21:37;;;;;;;0.30;0.30;;;6.00;99.90;;;;;;5036941;28;20508;-74
2023/02/25 12:24:25;;;;;;;0.30;0.30;;;6.20;99.90;;;;;;5056679;28;20030;-74
2023/02/25 12:26:57;;;;;;;0.20;0.20;;;6.40;99.90;;;;;;5055939;28;20094;-74
2023/02/25 12:29:54;;;;;;;0.20;0.20;;;6.00;99.90;;;;;;5064346;23;20044;-74
2023/02/25 12:32:48;;;;;;;0.20;0.20;;;5.80;99.90;;;;;;5015848;28;20121;-74
2023/02/25 12:35:34;;;;;;;0.20;0.20;;;6.10;99.90;;;;;;5029724;28;20017;-74
2023/02/25 12:38:37;;;;;;;0.25;0.25;;;6.10;99.90;;;;;;5035827;28;20057;-74
2023/02/25 12:41:11;;;;;;;0.20;0.20;;;6.30;99.90;;;;;;5021538;28;20410;-74
2023/02/25 12:44:11;;;;;;;0.20;0.20;;;6.40;99.90;;;;;;5016114;28;20033;-74
2023/02/25 12:46:52;;;;;;;0.20;0.20;;;6.50;99.90;;;;;;5016814;28;20095;-74
2023/02/25 12:49:42;;;;;;;0.30;0.30;;;6.70;99.90;;;;;;5016568;28;20041;-73
2023/02/25 12:52:35;;;;;;;0.20;0.20;;;7.20;99.90;;;;;;5033493;28;20026;-74
2023/02/25 12:55:51;;;;;;;0.20;0.20;;;7.50;99.90;;;;;;5036244;28;20433;-75
2023/02/25 12:58:25;;;;;;;0.20;0.20;;;7.80;99.90;;;;;;5014723;28;20042;-74
2023/02/25 13:01:25;;;;;;;0.20;0.20;;;8.10;99.90;;;;;;5015601;28;20561;-74
2023/02/25 13:04:19;;;;;;;0.20;0.20;;;7.30;99.90;;;;;;5027472;28;20030;-74
2023/02/25 13:07:13;;;;;;;0.20;0.20;;;7.10;99.90;;;;;;5035572;28;20028;-74
2023/02/25 13:10:00;;;;;;;0.30;0.30;;;7.30;99.90;;;;;;5029437;28;20512;-74
2023/02/25 13:12:52;;;;;;;0.20;0.20;;;7.80;99.90;;;;;;5035714;28;20442;-74
2023/02/25 13:15:32;;;;;;;0.20;0.20;;;8.30;99.90;;;;;;5033528;28;20479;-74
2023/02/25 13:18:16;;;;;;;0.20;0.20;;;8.80;99.90;;;;;;5035310;28;20376;-74
2023/02/25 13:21:12;;;;;;;0.30;0.30;;;8.50;99.90;;;;;;5012627;28;20037;-74